sensor_id;sensor_type;location;lat;lon;timestamp;temperature;humidity
5560;DHT22;2803;47.916;8.074;2023-02-14T00:02:20;4.00;99.90
5560;DHT22;2803;47.916;8.074;2023-02-14T00:04:47;4.20;99.90
5560;DHT22;2803;47.916;8.074;2023-02-14T00:07:14;4.00;99.90
5560;DHT22;2803;47.916;8.074;2023-02-14T00:09:40;4.20;99.90
5560;DHT22;2803;47.916;8.074;2023-02-14T00:12:07;4.50;99.90
5560;DHT22;2803;47.916;8.074;2023-02-14T00:14:35;4.70;99.90
5560;DHT22;2803;47.916;8.074;2023-02-14T00:17:15;4.90;99.90
5560;DHT22;2803;47.916;8.074;2023-02-14T00:19:42;5.00;99.90
5560;DHT22;2803;47.916;8.074;2023-02-14T00:22:09;5.10;99.90
5560;DHT22;2803;47.916;8.074;2023-02-14T00:24:36;5.20;99.90
5560;DHT22;2803;47.916;8.074;2023-02-14T00:27:02;5.00;99.90
5560;DHT22;2803;47.916;8.074;2023-02-14T00:29:30;5.00;99.90
5560;DHT22;2803;47.916;8.074;2023-02-14T00:31:59;4.90;99.90
5560;DHT22;2803;47.916;8.074;2023-02-14T00:34:26;4.80;99.90
5560;DHT22;2803;47.916;8.074;2023-02-14T00:36:53;4.10;99.90
5560;DHT22;2803;47.916;8.074;2023-02-14T00:39:20;3.80;99.90
5560;DHT22;2803;47.916;8.074;2023-02-14T00:41:47;4.00;99.90
5560;DHT22;2803;47.916;8.074;2023-02-14T00:44:13;4.30;99.90
5560;DHT22;2803;47.916;8.074;2023-02-14T00:46:40;4.50;99.90
5560;DHT22;2803;47.916;8.074;2023-02-14T00:49:08;4.50;99.90
5560;DHT22;2803;47.916;8.074;2023-02-14T00:51:34;4.60;99.90
5560;DHT22;2803;47.916;8.074;2023-02-14T00:54:01;4.40;99.90
5560;DHT22;2803;47.916;8.074;2023-02-14T00:56:28;4.40;99.90
5560;DHT22;2803;47.916;8.074;2023-02-14T00:58:55;4.60;99.90
5560;DHT22;2803;47.916;8.074;2023-02-14T01:01:21;4.50;99.90
5560;DHT22;2803;47.916;8.074;2023-02-14T01:03:48;4.30;99.90
5560;DHT22;2803;47.916;8.074;2023-02-14T01:06:16;4.50;99.90
5560;DHT22;2803;47.916;8.074;2023-02-14T01:08:43;4.50;99.90
5560;DHT22;2803;47.916;8.074;2023-02-14T01:11:12;4.70;99.90
5560;DHT22;2803;47.916;8.074;2023-02-14T01:13:39;4.70;99.90
5560;DHT22;2803;47.916;8.074;2023-02-14T01:16:08;4.60;99.90
5560;DHT22;2803;47.916;8.074;2023-02-14T01:18:36;4.70;99.90
5560;DHT22;2803;47.916;8.074;2023-02-14T01:21:20;4.90;99.90
5560;DHT22;2803;47.916;8.074;2023-02-14T01:23:49;4.80;99.90
5560;DHT22;2803;47.916;8.074;2023-02-14T01:26:16;4.90;99.90
5560;DHT22;2803;47.916;8.074;2023-02-14T01:28:44;4.80;99.90
5560;DHT22;2803;47.916;8.074;2023-02-14T01:31:13;4.70;99.90
5560;DHT22;2803;47.916;8.074;2023-02-14T01:33:41;4.80;99.90
5560;DHT22;2803;47.916;8.074;2023-02-14T01:36:15;4.80;99.90
5560;DHT22;2803;47.916;8.074;2023-02-14T01:38:43;4.70;99.90
5560;DHT22;2803;47.916;8.074;2023-02-14T01:41:10;4.60;99.90
5560;DHT22;2803;47.916;8.074;2023-02-14T01:43:52;4.70;99.90
5560;DHT22;2803;47.916;8.074;2023-02-14T01:46:20;4.40;99.90
5560;DHT22;2803;47.916;8.074;2023-02-14T01:48:48;4.40;99.90
5560;DHT22;2803;47.916;8.074;2023-02-14T01:51:18;4.60;99.90
5560;DHT22;2803;47.916;8.074;2023-02-14T01:53:47;4.70;99.90
5560;DHT22;2803;47.916;8.074;2023-02-14T01:56:20;4.70;99.90
5560;DHT22;2803;47.916;8.074;2023-02-14T01:58:51;4.50;99.90
5560;DHT22;2803;47.916;8.074;2023-02-14T02:01:19;4.20;99.90
5560;DHT22;2803;47.916;8.074;2023-02-14T02:03:48;3.90;99.90
5560;DHT22;2803;47.916;8.074;2023-02-14T02:06:18;3.80;99.90
5560;DHT22;2803;47.916;8.074;2023-02-14T02:08:53;3.60;99.90
5560;DHT22;2803;47.916;8.074;2023-02-14T02:11:23;3.70;99.90
5560;DHT22;2803;47.916;8.074;2023-02-14T02:13:49;3.50;99.90
5560;DHT22;2803;47.916;8.074;2023-02-14T02:16:28;3.50;99.90
5560;DHT22;2803;47.916;8.074;2023-02-14T02:19:16;3.20;99.90
5560;DHT22;2803;47.916;8.074;2023-02-14T02:21:58;3.30;99.90
5560;DHT22;2803;47.916;8.074;2023-02-14T02:24:37;3.30;99.90
5560;DHT22;2803;47.916;8.074;2023-02-14T02:27:23;3.40;99.90
5560;DHT22;2803;47.916;8.074;2023-02-14T02:33:12;3.40;99.90
5560;DHT22;2803;47.916;8.074;2023-02-14T02:35:53;3.30;99.90
5560;DHT22;2803;47.916;8.074;2023-02-14T02:38:35;3.40;99.90
5560;DHT22;2803;47.916;8.074;2023-02-14T02:41:16;3.80;99.90
5560;DHT22;2803;47.916;8.074;2023-02-14T02:43:50;3.80;99.90
5560;DHT22;2803;47.916;8.074;2023-02-14T02:46:23;4.00;99.90
5560;DHT22;2803;47.916;8.074;2023-02-14T02:49:12;4.00;99.90
5560;DHT22;2803;47.916;8.074;2023-02-14T02:52:03;4.10;99.90
5560;DHT22;2803;47.916;8.074;2023-02-14T02:54:52;4.00;99.90
5560;DHT22;2803;47.916;8.074;2023-02-14T02:57:24;4.20;99.90
5560;DHT22;2803;47.916;8.074;2023-02-14T02:59:54;4.20;99.90
5560;DHT22;2803;47.916;8.074;2023-02-14T03:02:24;3.70;99.90
5560;DHT22;2803;47.916;8.074;2023-02-14T03:04:54;3.80;99.90
5560;DHT22;2803;47.916;8.074;2023-02-14T03:07:30;4.10;99.90
5560;DHT22;2803;47.916;8.074;2023-02-14T03:10:05;4.30;99.90
5560;DHT22;2803;47.916;8.074;2023-02-14T03:12:51;4.40;99.90
5560;DHT22;2803;47.916;8.074;2023-02-14T03:15:24;4.50;99.90
5560;DHT22;2803;47.916;8.074;2023-02-14T03:18:00;4.20;99.90
5560;DHT22;2803;47.916;8.074;2023-02-14T03:20:37;4.20;99.90
5560;DHT22;2803;47.916;8.074;2023-02-14T03:23:13;4.10;99.90
5560;DHT22;2803;47.916;8.074;2023-02-14T03:25:53;3.90;99.90
5560;DHT22;2803;47.916;8.074;2023-02-14T03:28:29;3.90;99.90
5560;DHT22;2803;47.916;8.074;2023-02-14T03:31:02;3.80;99.90
5560;DHT22;2803;47.916;8.074;2023-02-14T03:33:32;3.70;99.90
5560;DHT22;2803;47.916;8.074;2023-02-14T03:36:05;3.80;99.90
5560;DHT22;2803;47.916;8.074;2023-02-14T03:38:40;4.00;99.90
5560;DHT22;2803;47.916;8.074;2023-02-14T03:41:12;4.00;99.90
5560;DHT22;2803;47.916;8.074;2023-02-14T03:43:43;3.80;99.90
5560;DHT22;2803;47.916;8.074;2023-02-14T03:46:14;3.60;99.90
5560;DHT22;2803;47.916;8.074;2023-02-14T03:48:43;3.60;99.90
5560;DHT22;2803;47.916;8.074;2023-02-14T03:51:12;3.70;99.90
5560;DHT22;2803;47.916;8.074;2023-02-14T03:53:44;3.50;99.90
5560;DHT22;2803;47.916;8.074;2023-02-14T03:56:14;3.50;99.90
5560;DHT22;2803;47.916;8.074;2023-02-14T03:58:45;3.20;99.90
5560;DHT22;2803;47.916;8.074;2023-02-14T04:01:16;3.40;99.90
5560;DHT22;2803;47.916;8.074;2023-02-14T04:03:46;3.40;99.90
5560;DHT22;2803;47.916;8.074;2023-02-14T04:06:15;3.50;99.90
5560;DHT22;2803;47.916;8.074;2023-02-14T04:08:43;3.70;99.90
5560;DHT22;2803;47.916;8.074;2023-02-14T04:11:10;3.70;99.90
5560;DHT22;2803;47.916;8.074;2023-02-14T04:13:38;3.70;99.90
5560;DHT22;2803;47.916;8.074;2023-02-14T04:16:05;3.80;99.90
5560;DHT22;2803;47.916;8.074;2023-02-14T04:18:32;3.90;99.90
5560;DHT22;2803;47.916;8.074;2023-02-14T04:21:13;3.70;99.90
5560;DHT22;2803;47.916;8.074;2023-02-14T04:23:39;3.30;99.90
5560;DHT22;2803;47.916;8.074;2023-02-14T04:26:07;3.10;99.90
5560;DHT22;2803;47.916;8.074;2023-02-14T04:28:34;3.40;99.90
5560;DHT22;2803;47.916;8.074;2023-02-14T04:31:01;3.70;99.90
5560;DHT22;2803;47.916;8.074;2023-02-14T04:33:28;3.70;99.90
5560;DHT22;2803;47.916;8.074;2023-02-14T04:35:55;3.80;99.90
5560;DHT22;2803;47.916;8.074;2023-02-14T04:38:21;3.80;99.90
5560;DHT22;2803;47.916;8.074;2023-02-14T04:40:48;4.00;99.90
5560;DHT22;2803;47.916;8.074;2023-02-14T04:43:16;4.00;99.90
5560;DHT22;2803;47.916;8.074;2023-02-14T04:45:43;3.90;99.90
5560;DHT22;2803;47.916;8.074;2023-02-14T04:48:10;3.90;99.90
5560;DHT22;2803;47.916;8.074;2023-02-14T04:50:36;4.00;99.90
5560;DHT22;2803;47.916;8.074;2023-02-14T04:53:03;3.80;99.90
5560;DHT22;2803;47.916;8.074;2023-02-14T04:55:29;3.90;99.90
5560;DHT22;2803;47.916;8.074;2023-02-14T04:57:56;4.10;99.90
5560;DHT22;2803;47.916;8.074;2023-02-14T05:00:24;3.90;99.90
5560;DHT22;2803;47.916;8.074;2023-02-14T05:02:50;3.90;99.90
5560;DHT22;2803;47.916;8.074;2023-02-14T05:05:17;3.70;99.90
5560;DHT22;2803;47.916;8.074;2023-02-14T05:07:44;3.90;99.90
5560;DHT22;2803;47.916;8.074;2023-02-14T05:10:12;3.80;99.90
5560;DHT22;2803;47.916;8.074;2023-02-14T05:12:38;3.80;99.90
5560;DHT22;2803;47.916;8.074;2023-02-14T05:15:05;3.70;99.90
5560;DHT22;2803;47.916;8.074;2023-02-14T05:17:33;3.80;99.90
5560;DHT22;2803;47.916;8.074;2023-02-14T05:20:00;3.80;99.90
5560;DHT22;2803;47.916;8.074;2023-02-14T05:22:27;3.80;99.90
5560;DHT22;2803;47.916;8.074;2023-02-14T05:24:53;3.70;99.90
5560;DHT22;2803;47.916;8.074;2023-02-14T05:27:20;3.80;99.90
5560;DHT22;2803;47.916;8.074;2023-02-14T05:29:46;3.70;99.90
5560;DHT22;2803;47.916;8.074;2023-02-14T05:32:13;3.80;99.90
5560;DHT22;2803;47.916;8.074;2023-02-14T05:34:41;3.80;99.90
5560;DHT22;2803;47.916;8.074;2023-02-14T05:37:07;3.70;99.90
5560;DHT22;2803;47.916;8.074;2023-02-14T05:39:34;3.80;99.90
5560;DHT22;2803;47.916;8.074;2023-02-14T05:42:01;3.80;99.90
5560;DHT22;2803;47.916;8.074;2023-02-14T05:44:27;3.80;99.90
5560;DHT22;2803;47.916;8.074;2023-02-14T05:46:54;3.90;99.90
5560;DHT22;2803;47.916;8.074;2023-02-14T05:49:20;3.90;99.90
5560;DHT22;2803;47.916;8.074;2023-02-14T05:51:48;3.90;99.90
5560;DHT22;2803;47.916;8.074;2023-02-14T05:54:15;4.00;99.90
5560;DHT22;2803;47.916;8.074;2023-02-14T05:56:41;4.10;99.90
5560;DHT22;2803;47.916;8.074;2023-02-14T05:59:08;3.90;99.90
5560;DHT22;2803;47.916;8.074;2023-02-14T06:01:35;3.60;99.90
5560;DHT22;2803;47.916;8.074;2023-02-14T06:04:01;3.50;99.90
5560;DHT22;2803;47.916;8.074;2023-02-14T06:06:28;3.50;99.90
5560;DHT22;2803;47.916;8.074;2023-02-14T06:08:56;3.40;99.90
5560;DHT22;2803;47.916;8.074;2023-02-14T06:11:22;3.40;99.90
5560;DHT22;2803;47.916;8.074;2023-02-14T06:13:49;3.40;99.90
5560;DHT22;2803;47.916;8.074;2023-02-14T06:16:15;3.30;99.90
5560;DHT22;2803;47.916;8.074;2023-02-14T06:18:42;3.00;99.90
5560;DHT22;2803;47.916;8.074;2023-02-14T06:21:08;2.90;99.90
5560;DHT22;2803;47.916;8.074;2023-02-14T06:23:35;2.90;99.90
5560;DHT22;2803;47.916;8.074;2023-02-14T06:26:03;3.00;99.90
5560;DHT22;2803;47.916;8.074;2023-02-14T06:28:30;3.40;99.90
5560;DHT22;2803;47.916;8.074;2023-02-14T06:30:56;3.60;99.90
5560;DHT22;2803;47.916;8.074;2023-02-14T06:33:23;3.80;99.90
5560;DHT22;2803;47.916;8.074;2023-02-14T06:35:50;3.80;99.90
5560;DHT22;2803;47.916;8.074;2023-02-14T06:38:18;3.80;99.90
5560;DHT22;2803;47.916;8.074;2023-02-14T06:40:44;3.70;99.90
5560;DHT22;2803;47.916;8.074;2023-02-14T06:43:12;3.80;99.90
5560;DHT22;2803;47.916;8.074;2023-02-14T06:45:40;3.70;99.90
5560;DHT22;2803;47.916;8.074;2023-02-14T06:48:08;3.70;99.90
5560;DHT22;2803;47.916;8.074;2023-02-14T06:50:34;3.70;99.90
5560;DHT22;2803;47.916;8.074;2023-02-14T06:53:01;3.70;99.90
5560;DHT22;2803;47.916;8.074;2023-02-14T06:55:27;3.80;99.90
5560;DHT22;2803;47.916;8.074;2023-02-14T06:57:54;3.90;99.90
5560;DHT22;2803;47.916;8.074;2023-02-14T07:00:22;3.90;99.90
5560;DHT22;2803;47.916;8.074;2023-02-14T07:02:49;4.10;99.90
5560;DHT22;2803;47.916;8.074;2023-02-14T07:05:15;3.80;99.90
5560;DHT22;2803;47.916;8.074;2023-02-14T07:07:43;3.80;99.90
5560;DHT22;2803;47.916;8.074;2023-02-14T07:10:10;3.70;99.90
5560;DHT22;2803;47.916;8.074;2023-02-14T07:12:37;3.60;99.90
5560;DHT22;2803;47.916;8.074;2023-02-14T07:15:04;3.70;99.90
5560;DHT22;2803;47.916;8.074;2023-02-14T07:17:32;3.60;99.90
5560;DHT22;2803;47.916;8.074;2023-02-14T07:19:59;3.70;99.90
5560;DHT22;2803;47.916;8.074;2023-02-14T07:22:26;3.20;99.90
5560;DHT22;2803;47.916;8.074;2023-02-14T07:24:52;3.20;99.90
5560;DHT22;2803;47.916;8.074;2023-02-14T07:27:19;3.40;99.90
5560;DHT22;2803;47.916;8.074;2023-02-14T07:29:45;3.50;99.90
5560;DHT22;2803;47.916;8.074;2023-02-14T07:32:12;3.60;99.90
5560;DHT22;2803;47.916;8.074;2023-02-14T07:34:40;3.60;99.90
5560;DHT22;2803;47.916;8.074;2023-02-14T07:37:06;3.50;99.90
5560;DHT22;2803;47.916;8.074;2023-02-14T07:39:33;3.70;99.90
5560;DHT22;2803;47.916;8.074;2023-02-14T07:41:59;3.60;99.90
5560;DHT22;2803;47.916;8.074;2023-02-14T07:44:26;3.60;99.90
5560;DHT22;2803;47.916;8.074;2023-02-14T07:46:53;3.70;99.90
5560;DHT22;2803;47.916;8.074;2023-02-14T07:49:19;3.90;99.90
5560;DHT22;2803;47.916;8.074;2023-02-14T07:51:48;4.10;99.90
5560;DHT22;2803;47.916;8.074;2023-02-14T07:54:14;4.20;99.90
5560;DHT22;2803;47.916;8.074;2023-02-14T07:56:41;4.30;99.90
5560;DHT22;2803;47.916;8.074;2023-02-14T07:59:07;3.80;99.90
5560;DHT22;2803;47.916;8.074;2023-02-14T08:01:34;4.00;99.90
5560;DHT22;2803;47.916;8.074;2023-02-14T08:04:00;3.80;99.90
5560;DHT22;2803;47.916;8.074;2023-02-14T08:06:27;3.90;99.90
5560;DHT22;2803;47.916;8.074;2023-02-14T08:08:55;4.20;99.90
5560;DHT22;2803;47.916;8.074;2023-02-14T08:11:21;4.40;99.90
5560;DHT22;2803;47.916;8.074;2023-02-14T08:14:02;4.50;99.90
5560;DHT22;2803;47.916;8.074;2023-02-14T08:16:29;4.80;99.90
5560;DHT22;2803;47.916;8.074;2023-02-14T08:18:58;5.10;99.90
5560;DHT22;2803;47.916;8.074;2023-02-14T08:21:25;5.30;99.90
5560;DHT22;2803;47.916;8.074;2023-02-14T08:23:52;5.40;99.90
5560;DHT22;2803;47.916;8.074;2023-02-14T08:26:20;5.60;99.90
5560;DHT22;2803;47.916;8.074;2023-02-14T08:28:47;5.80;99.90
5560;DHT22;2803;47.916;8.074;2023-02-14T08:31:21;5.90;99.90
5560;DHT22;2803;47.916;8.074;2023-02-14T08:33:49;5.80;99.90
5560;DHT22;2803;47.916;8.074;2023-02-14T08:36:15;5.90;99.90
5560;DHT22;2803;47.916;8.074;2023-02-14T08:38:42;6.30;99.90
5560;DHT22;2803;47.916;8.074;2023-02-14T08:41:09;6.50;99.90
5560;DHT22;2803;47.916;8.074;2023-02-14T08:43:37;6.90;99.90
5560;DHT22;2803;47.916;8.074;2023-02-14T08:46:04;7.20;99.90
5560;DHT22;2803;47.916;8.074;2023-02-14T08:48:30;7.00;99.90
5560;DHT22;2803;47.916;8.074;2023-02-14T08:50:57;7.20;99.90
5560;DHT22;2803;47.916;8.074;2023-02-14T08:53:23;7.40;99.90
5560;DHT22;2803;47.916;8.074;2023-02-14T08:55:50;7.90;99.90
5560;DHT22;2803;47.916;8.074;2023-02-14T08:58:17;8.10;99.90
5560;DHT22;2803;47.916;8.074;2023-02-14T09:00:44;8.60;99.90
5560;DHT22;2803;47.916;8.074;2023-02-14T09:03:11;8.90;99.90
5560;DHT22;2803;47.916;8.074;2023-02-14T09:05:38;9.20;99.90
5560;DHT22;2803;47.916;8.074;2023-02-14T09:08:05;9.60;99.90
5560;DHT22;2803;47.916;8.074;2023-02-14T09:10:32;10.00;99.90
5560;DHT22;2803;47.916;8.074;2023-02-14T09:12:58;10.40;99.90
5560;DHT22;2803;47.916;8.074;2023-02-14T09:15:25;10.80;99.90
5560;DHT22;2803;47.916;8.074;2023-02-14T09:17:53;11.10;99.90
5560;DHT22;2803;47.916;8.074;2023-02-14T09:20:19;11.30;99.90
5560;DHT22;2803;47.916;8.074;2023-02-14T09:22:46;11.10;99.90
5560;DHT22;2803;47.916;8.074;2023-02-14T09:25:13;11.30;99.90
5560;DHT22;2803;47.916;8.074;2023-02-14T09:27:40;11.30;99.90
5560;DHT22;2803;47.916;8.074;2023-02-14T09:30:08;11.40;99.90
5560;DHT22;2803;47.916;8.074;2023-02-14T09:32:35;11.50;99.90
5560;DHT22;2803;47.916;8.074;2023-02-14T09:35:03;11.70;99.90
5560;DHT22;2803;47.916;8.074;2023-02-14T09:37:30;12.30;99.90
5560;DHT22;2803;47.916;8.074;2023-02-14T09:39:56;12.20;99.90
5560;DHT22;2803;47.916;8.074;2023-02-14T09:42:37;12.00;99.90
5560;DHT22;2803;47.916;8.074;2023-02-14T09:45:10;12.50;99.90
5560;DHT22;2803;47.916;8.074;2023-02-14T09:47:42;13.00;99.40
5560;DHT22;2803;47.916;8.074;2023-02-14T09:50:16;13.10;99.90
5560;DHT22;2803;47.916;8.074;2023-02-14T09:52:46;13.10;99.70
5560;DHT22;2803;47.916;8.074;2023-02-14T09:55:16;13.10;99.20
5560;DHT22;2803;47.916;8.074;2023-02-14T09:57:53;13.80;98.20
5560;DHT22;2803;47.916;8.074;2023-02-14T10:00:28;13.90;98.60
5560;DHT22;2803;47.916;8.074;2023-02-14T10:03:08;13.90;98.50
5560;DHT22;2803;47.916;8.074;2023-02-14T10:05:43;13.80;98.30
5560;DHT22;2803;47.916;8.074;2023-02-14T10:08:22;13.90;97.90
5560;DHT22;2803;47.916;8.074;2023-02-14T10:10:58;14.80;97.80
5560;DHT22;2803;47.916;8.074;2023-02-14T10:13:32;14.70;98.10
5560;DHT22;2803;47.916;8.074;2023-02-14T10:16:04;15.20;97.30
5560;DHT22;2803;47.916;8.074;2023-02-14T10:18:38;15.90;96.40
5560;DHT22;2803;47.916;8.074;2023-02-14T10:21:08;16.30;95.60
5560;DHT22;2803;47.916;8.074;2023-02-14T10:23:41;16.80;94.90
5560;DHT22;2803;47.916;8.074;2023-02-14T10:26:13;16.80;93.50
5560;DHT22;2803;47.916;8.074;2023-02-14T10:28:43;17.10;92.50
5560;DHT22;2803;47.916;8.074;2023-02-14T10:31:18;17.10;92.00
5560;DHT22;2803;47.916;8.074;2023-02-14T10:33:50;17.30;92.50
5560;DHT22;2803;47.916;8.074;2023-02-14T10:36:26;17.80;89.50
5560;DHT22;2803;47.916;8.074;2023-02-14T10:39:02;18.20;86.30
5560;DHT22;2803;47.916;8.074;2023-02-14T10:41:39;18.80;86.80
5560;DHT22;2803;47.916;8.074;2023-02-14T10:44:18;18.00;88.20
5560;DHT22;2803;47.916;8.074;2023-02-14T10:46:52;18.70;87.90
5560;DHT22;2803;47.916;8.074;2023-02-14T10:49:37;18.90;88.20
5560;DHT22;2803;47.916;8.074;2023-02-14T10:52:14;19.70;80.70
5560;DHT22;2803;47.916;8.074;2023-02-14T10:54:43;20.30;81.20
5560;DHT22;2803;47.916;8.074;2023-02-14T10:57:13;20.20;81.60
5560;DHT22;2803;47.916;8.074;2023-02-14T10:59:48;19.60;81.20
5560;DHT22;2803;47.916;8.074;2023-02-14T11:02:20;19.00;81.30
5560;DHT22;2803;47.916;8.074;2023-02-14T11:04:48;19.00;81.70
5560;DHT22;2803;47.916;8.074;2023-02-14T11:07:19;20.50;77.60
5560;DHT22;2803;47.916;8.074;2023-02-14T11:09:46;21.80;76.20
5560;DHT22;2803;47.916;8.074;2023-02-14T11:12:30;22.10;73.40
5560;DHT22;2803;47.916;8.074;2023-02-14T11:15:08;23.00;69.10
5560;DHT22;2803;47.916;8.074;2023-02-14T11:17:35;23.30;65.40
5560;DHT22;2803;47.916;8.074;2023-02-14T11:20:19;23.20;66.00
5560;DHT22;2803;47.916;8.074;2023-02-14T11:22:48;23.10;61.10
5560;DHT22;2803;47.916;8.074;2023-02-14T11:25:19;23.60;60.30
5560;DHT22;2803;47.916;8.074;2023-02-14T11:27:47;23.60;61.10
5560;DHT22;2803;47.916;8.074;2023-02-14T11:30:21;22.80;60.70
5560;DHT22;2803;47.916;8.074;2023-02-14T11:32:50;22.70;61.00
5560;DHT22;2803;47.916;8.074;2023-02-14T11:35:21;23.30;56.50
5560;DHT22;2803;47.916;8.074;2023-02-14T11:37:54;23.80;57.20
5560;DHT22;2803;47.916;8.074;2023-02-14T11:40:26;23.80;56.80
5560;DHT22;2803;47.916;8.074;2023-02-14T11:42:53;23.40;56.90
5560;DHT22;2803;47.916;8.074;2023-02-14T11:45:31;23.90;55.70
5560;DHT22;2803;47.916;8.074;2023-02-14T11:48:07;24.10;55.20
5560;DHT22;2803;47.916;8.074;2023-02-14T11:50:35;24.40;55.10
5560;DHT22;2803;47.916;8.074;2023-02-14T11:53:09;24.70;53.70
5560;DHT22;2803;47.916;8.074;2023-02-14T11:55:37;24.90;52.40
5560;DHT22;2803;47.916;8.074;2023-02-14T11:58:06;25.00;51.80
5560;DHT22;2803;47.916;8.074;2023-02-14T12:00:33;25.00;50.30
5560;DHT22;2803;47.916;8.074;2023-02-14T12:03:01;24.50;50.20
5560;DHT22;2803;47.916;8.074;2023-02-14T12:05:32;24.60;50.70
5560;DHT22;2803;47.916;8.074;2023-02-14T12:08:02;24.50;49.30
5560;DHT22;2803;47.916;8.074;2023-02-14T12:10:31;24.00;49.50
5560;DHT22;2803;47.916;8.074;2023-02-14T12:13:00;23.80;48.10
5560;DHT22;2803;47.916;8.074;2023-02-14T12:15:35;23.80;50.20
5560;DHT22;2803;47.916;8.074;2023-02-14T12:20:58;23.40;49.90
5560;DHT22;2803;47.916;8.074;2023-02-14T12:23:35;23.00;49.80
5560;DHT22;2803;47.916;8.074;2023-02-14T12:26:13;22.80;50.00
5560;DHT22;2803;47.916;8.074;2023-02-14T12:28:45;22.60;47.50
5560;DHT22;2803;47.916;8.074;2023-02-14T12:31:14;22.30;48.30
5560;DHT22;2803;47.916;8.074;2023-02-14T12:33:41;22.10;49.70
5560;DHT22;2803;47.916;8.074;2023-02-14T12:36:13;22.00;49.10
5560;DHT22;2803;47.916;8.074;2023-02-14T12:38:50;21.80;48.80
5560;DHT22;2803;47.916;8.074;2023-02-14T12:41:29;21.40;49.20
5560;DHT22;2803;47.916;8.074;2023-02-14T12:44:03;20.20;48.80
5560;DHT22;2803;47.916;8.074;2023-02-14T12:46:43;20.00;49.10
5560;DHT22;2803;47.916;8.074;2023-02-14T12:49:28;20.20;51.70
5560;DHT22;2803;47.916;8.074;2023-02-14T12:52:06;20.40;50.00
5560;DHT22;2803;47.916;8.074;2023-02-14T12:54:47;20.10;50.10
5560;DHT22;2803;47.916;8.074;2023-02-14T12:57:23;20.30;50.80
5560;DHT22;2803;47.916;8.074;2023-02-14T12:59:56;20.10;50.80
5560;DHT22;2803;47.916;8.074;2023-02-14T13:02:42;20.30;51.10
5560;DHT22;2803;47.916;8.074;2023-02-14T13:05:18;19.70;50.50
5560;DHT22;2803;47.916;8.074;2023-02-14T13:07:59;19.10;51.30
5560;DHT22;2803;47.916;8.074;2023-02-14T13:10:38;18.40;51.70
5560;DHT22;2803;47.916;8.074;2023-02-14T13:13:17;17.70;53.90
5560;DHT22;2803;47.916;8.074;2023-02-14T13:15:52;17.10;54.20
5560;DHT22;2803;47.916;8.074;2023-02-14T13:18:33;16.30;55.40
5560;DHT22;2803;47.916;8.074;2023-02-14T13:21:03;15.70;56.80
5560;DHT22;2803;47.916;8.074;2023-02-14T13:23:34;15.30;56.10
5560;DHT22;2803;47.916;8.074;2023-02-14T13:26:07;14.80;55.90
5560;DHT22;2803;47.916;8.074;2023-02-14T13:28:37;14.70;59.90
5560;DHT22;2803;47.916;8.074;2023-02-14T13:31:06;14.40;59.80
5560;DHT22;2803;47.916;8.074;2023-02-14T13:33:36;14.40;61.50
5560;DHT22;2803;47.916;8.074;2023-02-14T13:36:07;14.40;60.40
5560;DHT22;2803;47.916;8.074;2023-02-14T13:38:39;14.20;61.30
5560;DHT22;2803;47.916;8.074;2023-02-14T13:41:08;13.70;62.80
5560;DHT22;2803;47.916;8.074;2023-02-14T13:43:52;13.80;67.60
5560;DHT22;2803;47.916;8.074;2023-02-14T13:49:12;13.20;66.80
5560;DHT22;2803;47.916;8.074;2023-02-14T13:51:44;13.20;67.50
5560;DHT22;2803;47.916;8.074;2023-02-14T13:54:27;12.80;70.60
5560;DHT22;2803;47.916;8.074;2023-02-14T13:56:56;12.70;68.90
5560;DHT22;2803;47.916;8.074;2023-02-14T13:59:27;12.80;70.00
5560;DHT22;2803;47.916;8.074;2023-02-14T14:01:54;12.60;70.30
5560;DHT22;2803;47.916;8.074;2023-02-14T14:04:36;12.70;74.00
5560;DHT22;2803;47.916;8.074;2023-02-14T14:07:19;12.70;73.50
5560;DHT22;2803;47.916;8.074;2023-02-14T14:09:57;12.80;73.30
5560;DHT22;2803;47.916;8.074;2023-02-14T14:12:39;12.90;73.60
5560;DHT22;2803;47.916;8.074;2023-02-14T14:15:12;12.60;74.00
5560;DHT22;2803;47.916;8.074;2023-02-14T14:17:41;12.40;75.70
5560;DHT22;2803;47.916;8.074;2023-02-14T14:23:29;12.30;74.30
5560;DHT22;2803;47.916;8.074;2023-02-14T14:25:56;12.30;76.50
5560;DHT22;2803;47.916;8.074;2023-02-14T14:28:24;12.00;76.70
5560;DHT22;2803;47.916;8.074;2023-02-14T14:30:53;12.10;78.60
5560;DHT22;2803;47.916;8.074;2023-02-14T14:33:25;12.10;78.60
5560;DHT22;2803;47.916;8.074;2023-02-14T14:35:52;12.20;80.00
5560;DHT22;2803;47.916;8.074;2023-02-14T14:38:19;12.10;77.80
5560;DHT22;2803;47.916;8.074;2023-02-14T14:40:47;11.90;78.90
5560;DHT22;2803;47.916;8.074;2023-02-14T14:43:17;11.90;79.60
5560;DHT22;2803;47.916;8.074;2023-02-14T14:45:47;11.70;80.30
5560;DHT22;2803;47.916;8.074;2023-02-14T14:48:25;11.80;81.80
5560;DHT22;2803;47.916;8.074;2023-02-14T14:50:52;11.50;82.50
5560;DHT22;2803;47.916;8.074;2023-02-14T14:53:21;11.70;82.40
5560;DHT22;2803;47.916;8.074;2023-02-14T14:55:50;11.40;82.10
5560;DHT22;2803;47.916;8.074;2023-02-14T14:58:34;11.50;82.80
5560;DHT22;2803;47.916;8.074;2023-02-14T15:01:02;11.60;83.20
5560;DHT22;2803;47.916;8.074;2023-02-14T15:03:31;11.60;83.60
5560;DHT22;2803;47.916;8.074;2023-02-14T15:06:08;11.60;85.20
5560;DHT22;2803;47.916;8.074;2023-02-14T15:08:35;11.60;85.40
5560;DHT22;2803;47.916;8.074;2023-02-14T15:11:06;11.60;87.20
5560;DHT22;2803;47.916;8.074;2023-02-14T15:13:38;11.50;86.20
5560;DHT22;2803;47.916;8.074;2023-02-14T15:16:24;11.40;85.70
5560;DHT22;2803;47.916;8.074;2023-02-14T15:18:55;11.40;85.70
5560;DHT22;2803;47.916;8.074;2023-02-14T15:21:23;11.30;86.40
5560;DHT22;2803;47.916;8.074;2023-02-14T15:23:50;11.30;88.00
5560;DHT22;2803;47.916;8.074;2023-02-14T15:26:22;11.30;89.30
5560;DHT22;2803;47.916;8.074;2023-02-14T15:28:54;11.10;88.70
5560;DHT22;2803;47.916;8.074;2023-02-14T15:31:22;11.00;89.50
5560;DHT22;2803;47.916;8.074;2023-02-14T15:33:50;11.00;88.50
5560;DHT22;2803;47.916;8.074;2023-02-14T15:36:19;11.00;89.20
5560;DHT22;2803;47.916;8.074;2023-02-14T15:38:49;11.00;90.10
5560;DHT22;2803;47.916;8.074;2023-02-14T15:41:16;11.00;90.40
5560;DHT22;2803;47.916;8.074;2023-02-14T15:43:48;10.90;91.00
5560;DHT22;2803;47.916;8.074;2023-02-14T15:46:23;10.70;92.10
5560;DHT22;2803;47.916;8.074;2023-02-14T15:48:52;10.50;91.90
5560;DHT22;2803;47.916;8.074;2023-02-14T15:51:24;10.50;91.10
5560;DHT22;2803;47.916;8.074;2023-02-14T15:53:52;10.50;91.50
5560;DHT22;2803;47.916;8.074;2023-02-14T15:56:24;10.50;92.10
5560;DHT22;2803;47.916;8.074;2023-02-14T15:58:57;10.20;91.90
5560;DHT22;2803;47.916;8.074;2023-02-14T16:01:25;10.20;91.80
5560;DHT22;2803;47.916;8.074;2023-02-14T16:03:55;10.10;93.00
5560;DHT22;2803;47.916;8.074;2023-02-14T16:06:35;10.00;92.70
5560;DHT22;2803;47.916;8.074;2023-02-14T16:09:04;10.10;93.30
5560;DHT22;2803;47.916;8.074;2023-02-14T16:11:32;10.10;93.30
5560;DHT22;2803;47.916;8.074;2023-02-14T16:14:18;10.10;93.80
5560;DHT22;2803;47.916;8.074;2023-02-14T16:17:01;9.90;94.30
5560;DHT22;2803;47.916;8.074;2023-02-14T16:19:30;9.90;93.60
5560;DHT22;2803;47.916;8.074;2023-02-14T16:21:59;10.00;93.20
5560;DHT22;2803;47.916;8.074;2023-02-14T16:24:25;9.80;94.00
5560;DHT22;2803;47.916;8.074;2023-02-14T16:26:54;9.80;93.90
5560;DHT22;2803;47.916;8.074;2023-02-14T16:29:22;9.90;94.60
5560;DHT22;2803;47.916;8.074;2023-02-14T16:31:53;9.80;94.70
5560;DHT22;2803;47.916;8.074;2023-02-14T16:34:20;9.80;94.10
5560;DHT22;2803;47.916;8.074;2023-02-14T16:36:47;9.80;94.50
5560;DHT22;2803;47.916;8.074;2023-02-14T16:39:17;9.60;95.00
5560;DHT22;2803;47.916;8.074;2023-02-14T16:41:46;9.60;95.30
5560;DHT22;2803;47.916;8.074;2023-02-14T16:44:14;9.60;95.20
5560;DHT22;2803;47.916;8.074;2023-02-14T16:46:41;9.50;95.50